createdAt,value
2023-03-27T00:00:01.878Z,98982.41
2023-03-27T00:01:04.447Z,98981.56
2023-03-27T00:02:07.621Z,98981.56
2023-03-27T00:03:11.343Z,98988.16
2023-03-27T00:04:17.900Z,98987.06
2023-03-27T00:05:21.426Z,98985.44
2023-03-27T00:06:25.524Z,98989.78
2023-03-27T00:07:28.171Z,98981.56
2023-03-27T00:08:31.805Z,98993.66
2023-03-27T00:09:34.080Z,98986.22
2023-03-27T00:10:38.578Z,98989.78
2023-03-27T00:11:41.467Z,98984.31
2023-03-27T00:12:47.362Z,98988.72
2023-03-27T00:13:51.464Z,98987.91
2023-03-27T00:14:54.081Z,98987.06
2023-03-27T00:15:58.223Z,98991.44
2023-03-27T00:17:00.587Z,98996.13
2023-03-27T00:18:04.629Z,98997.22
2023-03-27T00:19:06.912Z,98986.22
2023-03-27T00:20:09.649Z,98996.41
2023-03-27T00:21:12.026Z,98994.47
2023-03-27T00:22:14.276Z,98991.72
2023-03-27T00:23:16.634Z,98996.41
2023-03-27T00:24:19.112Z,98999.97
2023-03-27T00:25:27.322Z,98988.97
2023-03-27T00:26:30.819Z,98994.75
2023-03-27T00:27:33.112Z,98996.66
2023-03-27T00:28:35.976Z,99001.34
2023-03-27T00:29:40.026Z,98997.78
2023-03-27T00:30:43.884Z,99000.53
2023-03-27T00:31:46.539Z,98991.44
2023-03-27T00:32:50.829Z,98996.13
2023-03-27T00:33:53.162Z,99003.81
2023-03-27T00:34:55.457Z,99000.78
2023-03-27T00:35:57.837Z,99000.78
2023-03-27T00:37:00.195Z,99001.06
2023-03-27T00:38:05.077Z,99010.94
2023-03-27T00:39:07.437Z,99005.72
2023-03-27T00:40:19.216Z,99017.53
2023-03-27T00:41:22.542Z,99030.19
2023-03-27T00:42:26.605Z,99034.28
2023-03-27T00:43:30.814Z,99044.19
2023-03-27T00:44:34.639Z,99039.22
2023-03-27T00:45:39.429Z,99050.47
2023-03-27T00:46:45.093Z,99049.94
2023-03-27T00:47:54.761Z,99051.50
2023-03-27T00:49:00.104Z,99052.91
2023-03-27T00:50:08.992Z,99054.50
2023-03-27T00:51:11.397Z,99055.59
2023-03-27T00:52:17.961Z,99055.31
2023-03-27T00:53:24.826Z,99058.84
2023-03-27T00:54:32.836Z,99077.22
2023-03-27T00:55:38.721Z,99078.00
2023-03-27T00:56:41.027Z,99063.44
2023-03-27T00:57:46.931Z,99072.47
2023-03-27T00:58:53.156Z,99074.09
2023-03-27T00:59:57.838Z,99077.94
2023-03-27T01:01:00.273Z,99075.16
2023-03-27T01:02:04.280Z,99085.25
2023-03-27T01:03:09.101Z,99093.44
2023-03-27T01:04:11.642Z,99097.53
2023-03-27T01:05:14.139Z,99086.00
2023-03-27T01:06:17.414Z,99092.53
2023-03-27T01:07:25.248Z,99099.63
2023-03-27T01:08:32.169Z,99103.97
2023-03-27T01:09:34.519Z,99104.75
2023-03-27T01:11:09.455Z,99102.81
2023-03-27T01:12:47.398Z,99115.31
2023-03-27T01:14:20.609Z,99112.53
2023-03-27T01:15:37.613Z,99123.97
2023-03-27T01:17:18.091Z,99132.09
2023-03-27T01:18:23.038Z,99146.00
2023-03-27T01:19:49.939Z,99139.34
2023-03-27T01:21:02.630Z,99146.69
2023-03-27T01:22:29.921Z,99146.63
2023-03-27T01:24:00.409Z,99152.06
2023-03-27T01:25:27.768Z,99162.63
2023-03-27T01:26:48.887Z,99154.28
2023-03-27T01:28:29.322Z,99166.22
2023-03-27T01:29:40.435Z,99165.59
2023-03-27T01:30:58.465Z,99163.59
2023-03-27T01:32:13.124Z,99167.38
2023-03-27T01:33:50.866Z,99181.81
2023-03-27T01:35:21.979Z,99175.44
2023-03-27T01:36:31.946Z,99179.16
2023-03-27T01:37:57.872Z,99183.50
2023-03-27T01:39:25.196Z,99183.41
2023-03-27T01:40:34.311Z,99177.59
2023-03-27T01:41:56.330Z,99183.81
2023-03-27T01:43:07.192Z,99187.59
2023-03-27T01:44:17.184Z,99189.38
2023-03-27T01:45:25.530Z,99190.50
2023-03-27T01:46:41.990Z,99192.03
2023-03-27T01:48:02.778Z,99199.94
2023-03-27T01:49:11.410Z,99206.72
2023-03-27T01:50:37.262Z,99208.28
2023-03-27T01:51:49.229Z,99216.72
2023-03-27T01:52:58.753Z,99213.69
2023-03-27T01:54:33.166Z,99217.75
2023-03-27T01:55:41.381Z,99219.06
2023-03-27T01:56:53.908Z,99226.09
2023-03-27T01:58:07.222Z,99225.50
2023-03-27T01:59:19.385Z,99230.38
2023-03-27T02:00:24.620Z,99238.84
2023-03-27T02:01:43.326Z,99239.09
2023-03-27T02:02:52.369Z,99239.34
2023-03-27T02:03:58.356Z,99237.69
2023-03-27T02:05:12.815Z,99239.56
2023-03-27T02:06:24.457Z,99240.88
2023-03-27T02:07:35.001Z,99243.63
2023-03-27T02:08:59.686Z,99249.59
2023-03-27T02:10:08.517Z,99239.97
2023-03-27T02:11:13.053Z,99241.03
2023-03-27T02:12:21.953Z,99252.22
2023-03-27T02:13:43.099Z,99253.88
2023-03-27T02:15:23.982Z,99260.91
2023-03-27T02:16:34.046Z,99256.53
2023-03-27T02:17:43.368Z,99267.47
2023-03-27T02:18:54.541Z,99254.03
2023-03-27T02:20:01.099Z,99257.03
2023-03-27T02:21:04.382Z,99267.09
2023-03-27T02:22:08.067Z,99271.16
2023-03-27T02:23:23.136Z,99250.59
2023-03-27T02:24:25.541Z,99265.34
2023-03-27T02:25:27.856Z,99270.22
2023-03-27T02:26:30.792Z,99276.50
2023-03-27T02:27:42.445Z,99267.75
2023-03-27T02:29:21.989Z,99279.50
2023-03-27T02:30:45.232Z,99281.88
2023-03-27T02:32:25.217Z,99290.56
2023-03-27T02:33:45.905Z,99288.34
2023-03-27T02:34:57.262Z,99294.88
2023-03-27T02:36:12.144Z,99295.09
2023-03-27T02:37:32.130Z,99301.03
2023-03-27T02:39:39.393Z,99308.88
2023-03-27T02:40:54.920Z,99311.28
2023-03-27T02:42:45.091Z,99315.78
2023-03-27T02:44:04.972Z,99324.22
2023-03-27T02:45:47.677Z,99324.97
2023-03-27T02:47:09.852Z,99327.91
2023-03-27T02:48:23.935Z,99327.34
2023-03-27T02:49:33.924Z,99332.19
2023-03-27T02:50:46.843Z,99337.06
2023-03-27T02:51:57.964Z,99339.44
2023-03-27T02:53:03.449Z,99343.22
2023-03-27T02:54:12.272Z,99345.41
2023-03-27T02:55:19.509Z,99351.91
2023-03-27T02:56:24.762Z,99354.88
2023-03-27T02:57:31.939Z,99351.31
2023-03-27T02:58:58.724Z,99350.72
2023-03-27T03:00:25.768Z,99356.19
2023-03-27T03:01:45.552Z,99362.09
2023-03-27T03:03:05.897Z,99366.75
2023-03-27T03:04:18.942Z,99365.06
2023-03-27T03:05:45.453Z,99364.47
2023-03-27T03:06:47.876Z,99368.28
2023-03-27T03:07:50.683Z,99380.03
2023-03-27T03:08:53.029Z,99375.06
2023-03-27T03:09:55.395Z,99384.88
2023-03-27T03:11:07.969Z,99377.78
2023-03-27T03:12:10.822Z,99378.25
2023-03-27T03:13:17.890Z,99383.69
2023-03-27T03:14:28.058Z,99394.63
2023-03-27T03:15:30.898Z,99398.44
2023-03-27T03:16:33.661Z,99384.78
2023-03-27T03:17:39.234Z,99384.53
2023-03-27T03:18:41.539Z,99397.34
2023-03-27T03:19:45.114Z,99396.75
2023-03-27T03:20:47.424Z,99405.53
2023-03-27T03:21:51.012Z,99402.00
2023-03-27T03:22:53.370Z,99409.34
2023-03-27T03:23:57.957Z,99407.19
2023-03-27T03:25:02.294Z,99406.38
2023-03-27T03:26:06.852Z,99417.31
2023-03-27T03:27:21.280Z,99414.56
2023-03-27T03:28:39.028Z,99418.38
2023-03-27T03:29:44.534Z,99417.53
2023-03-27T03:30:59.531Z,99430.94
2023-03-27T03:32:06.962Z,99427.38
2023-03-27T03:33:09.834Z,99424.63
2023-03-27T03:34:19.754Z,99427.97
2023-03-27T03:35:23.922Z,99432.59
2023-03-27T03:36:30.930Z,99435.31
2023-03-27T03:37:39.003Z,99437.22
2023-03-27T03:38:44.328Z,99439.97
2023-03-27T03:39:49.653Z,99439.13
2023-03-27T03:40:55.631Z,99449.81
2023-03-27T03:41:58.318Z,99445.41
2023-03-27T03:43:00.661Z,99450.63
2023-03-27T03:44:05.302Z,99457.75
2023-03-27T03:45:09.353Z,99463.22
2023-03-27T03:46:12.776Z,99464.03
2023-03-27T03:47:16.300Z,99460.50
2023-03-27T03:48:19.818Z,99469.50
2023-03-27T03:49:22.164Z,99474.38
2023-03-27T03:50:24.794Z,99479.84
2023-03-27T03:51:28.750Z,99481.50
2023-03-27T03:52:31.080Z,99485.06
2023-03-27T03:53:33.527Z,99484.81
2023-03-27T03:54:38.864Z,99485.88
2023-03-27T03:55:41.310Z,99484.25
2023-03-27T03:56:43.798Z,99484.81
2023-03-27T03:57:50.424Z,99489.22
2023-03-27T03:59:01.088Z,99489.22
2023-03-27T04:00:08.829Z,99495.75
2023-03-27T04:01:24.570Z,99499.53
2023-03-27T04:02:31.644Z,99494.06
2023-03-27T04:03:39.862Z,99499.53
2023-03-27T04:04:45.411Z,99500.13
2023-03-27T04:05:51.159Z,99511.88
2023-03-27T04:06:58.393Z,99506.66
2023-03-27T04:08:09.876Z,99512.13
2023-03-27T04:09:44.426Z,99510.44
2023-03-27T04:11:00.939Z,99522.22
2023-03-27T04:12:20.143Z,99517.81
2023-03-27T04:13:32.370Z,99527.91
2023-03-27T04:14:43.011Z,99530.66
2023-03-27T04:16:06.815Z,99524.34
2023-03-27T04:17:12.035Z,99535.00
2023-03-27T04:18:15.425Z,99533.13
2023-03-27T04:19:18.497Z,99540.72
2023-03-27T04:20:28.142Z,99545.34
2023-03-27T04:21:31.717Z,99547.03
2023-03-27T04:22:38.323Z,99553.06
2023-03-27T04:23:46.101Z,99544.88
2023-03-27T04:24:50.885Z,99551.41
2023-03-27T04:25:57.601Z,99554.13
2023-03-27T04:27:05.841Z,99562.09
2023-03-27T04:28:18.544Z,99561.25
2023-03-27T04:29:26.801Z,99561.25
2023-03-27T04:30:37.150Z,99558.53
2023-03-27T04:31:55.528Z,99553.31
2023-03-27T04:33:19.368Z,99555.81
2023-03-27T04:34:41.532Z,99561.25
2023-03-27T04:36:07.942Z,99564.84
2023-03-27T04:37:24.190Z,99567.78
2023-03-27T04:38:51.315Z,99574.31
2023-03-27T04:39:53.951Z,99577.06
2023-03-27T04:40:56.633Z,99578.94
2023-03-27T04:41:59.405Z,99581.66
2023-03-27T04:43:05.976Z,99579.78
2023-03-27T04:44:09.991Z,99584.16
2023-03-27T04:45:20.786Z,99589.59
2023-03-27T04:46:25.670Z,99595.31
2023-03-27T04:47:38.214Z,99592.34
2023-03-27T04:48:41.393Z,99602.44
2023-03-27T04:49:59.518Z,99599.94
2023-03-27T04:51:03.373Z,99604.56
2023-03-27T04:52:10.272Z,99599.94
2023-03-27T04:53:16.780Z,99604.78
2023-03-27T04:54:23.744Z,99609.19
2023-03-27T04:55:27.163Z,99607.53
2023-03-27T04:56:30.978Z,99615.72
2023-03-27T04:57:34.630Z,99614.88
2023-03-27T04:58:37.715Z,99618.44
2023-03-27T04:59:45.870Z,99622.25
2023-03-27T05:01:07.048Z,99622.25
2023-03-27T05:02:28.436Z,99630.22
2023-03-27T05:03:39.300Z,99627.72
2023-03-27T05:05:02.380Z,99627.72
2023-03-27T05:06:10.636Z,99624.13
2023-03-27T05:07:13.201Z,99635.91
2023-03-27T05:08:17.503Z,99627.91
2023-03-27T05:09:20.700Z,99634.22
2023-03-27T05:10:24.268Z,99634.47
2023-03-27T05:11:27.728Z,99638.84
2023-03-27T05:12:30.965Z,99640.75
2023-03-27T05:13:37.200Z,99643.47
2023-03-27T05:14:39.767Z,99644.53
2023-03-27T05:15:49.364Z,99658.19
2023-03-27T05:16:54.629Z,99650.84
2023-03-27T05:17:58.884Z,99657.13
2023-03-27T05:19:03.672Z,99660.91
2023-03-27T05:20:17.279Z,99662.81
2023-03-27T05:21:19.888Z,99659.84
2023-03-27T05:22:22.427Z,99665.31
2023-03-27T05:23:32.392Z,99664.50
2023-03-27T05:24:35.262Z,99666.38
2023-03-27T05:25:39.603Z,99670.78
2023-03-27T05:26:47.106Z,99672.44
2023-03-27T05:27:52.967Z,99680.88
2023-03-27T05:28:56.085Z,99667.22
2023-03-27T05:29:58.804Z,99681.06
2023-03-27T05:31:01.576Z,99678.34
2023-03-27T05:32:07.457Z,99668.50
2023-03-27T05:33:17.808Z,99673.97
2023-03-27T05:34:22.463Z,99683.81
2023-03-27T05:35:28.787Z,99676.47
2023-03-27T05:36:33.271Z,99680.25
2023-03-27T05:37:36.634Z,99676.69
2023-03-27T05:38:58.265Z,99678.56
2023-03-27T05:40:06.695Z,99689.50
2023-03-27T05:41:12.597Z,99677.75
2023-03-27T05:42:20.437Z,99687.81
2023-03-27T05:43:24.277Z,99694.94
2023-03-27T05:44:27.688Z,99694.94
2023-03-27T05:45:31.159Z,99694.94
2023-03-27T05:46:33.527Z,99701.25
2023-03-27T05:47:50.193Z,99702.09
2023-03-27T05:48:54.498Z,99701.84
2023-03-27T05:49:56.935Z,99702.72
2023-03-27T05:51:00.194Z,99704.34
2023-03-27T05:52:04.492Z,99704.34
2023-03-27T05:53:10.352Z,99709.81
2023-03-27T05:54:16.793Z,99707.31
2023-03-27T05:55:32.202Z,99712.78
2023-03-27T05:56:34.662Z,99715.50
2023-03-27T05:57:40.552Z,99718.00
2023-03-27T05:58:43.447Z,99723.69
2023-03-27T05:59:49.084Z,99722.88
2023-03-27T06:00:56.972Z,99720.97
2023-03-27T06:01:59.525Z,99723.69
2023-03-27T06:03:13.440Z,99731.88
2023-03-27T06:04:34.415Z,99725.84
2023-03-27T06:05:50.461Z,99730.44
2023-03-27T06:06:54.440Z,99732.34
2023-03-27T06:07:59.315Z,99733.41
2023-03-27T06:09:01.741Z,99734.44
2023-03-27T06:10:13.663Z,99740.75
2023-03-27T06:11:19.178Z,99740.13
2023-03-27T06:12:24.189Z,99747.03
2023-03-27T06:13:33.257Z,99751.88
2023-03-27T06:14:44.304Z,99753.56
2023-03-27T06:16:08.227Z,99751.88
2023-03-27T06:17:19.483Z,99763.88
2023-03-27T06:18:34.480Z,99752.97
2023-03-27T06:19:37.236Z,99752.97
2023-03-27T06:20:42.929Z,99764.72
2023-03-27T06:21:46.409Z,99766.00
2023-03-27T06:22:50.383Z,99762.44
2023-03-27T06:23:56.481Z,99775.22
2023-03-27T06:25:01.480Z,99769.53
2023-03-27T06:26:04.040Z,99767.91
2023-03-27T06:27:06.509Z,99769.78
2023-03-27T06:28:11.363Z,99772.50
2023-03-27T06:29:20.020Z,99772.72
2023-03-27T06:30:26.106Z,99776.53
2023-03-27T06:31:47.027Z,99789.94
2023-03-27T06:32:59.582Z,99777.97
2023-03-27T06:34:02.799Z,99786.16
2023-03-27T06:35:15.457Z,99794.09
2023-03-27T06:36:28.000Z,99789.50
2023-03-27T06:37:34.122Z,99782.38
2023-03-27T06:38:37.528Z,99788.44
2023-03-27T06:39:41.171Z,99794.72
2023-03-27T06:40:45.503Z,99787.75
2023-03-27T06:41:49.030Z,99796.56
2023-03-27T06:43:10.819Z,99794.06
2023-03-27T06:44:23.289Z,99801.78
2023-03-27T06:46:00.820Z,99797.78
2023-03-27T06:47:21.539Z,99805.50
2023-03-27T06:48:42.958Z,99797.72
2023-03-27T06:49:48.024Z,99800.19
2023-03-27T06:50:56.398Z,99809.25
2023-03-27T06:51:59.716Z,99814.72
2023-03-27T06:53:03.053Z,99809.00
2023-03-27T06:54:15.603Z,99813.03
2023-03-27T06:55:27.817Z,99821.22
2023-03-27T06:56:30.514Z,99819.31
2023-03-27T06:57:55.372Z,99830.00
2023-03-27T06:58:57.645Z,99830.47
2023-03-27T07:00:11.804Z,99827.75
2023-03-27T07:01:33.272Z,99830.47
2023-03-27T07:02:57.529Z,99837.59
2023-03-27T07:04:20.401Z,99835.94
2023-03-27T07:05:40.986Z,99839.47
2023-03-27T07:06:43.538Z,99841.38
2023-03-27T07:07:49.417Z,99852.06
2023-03-27T07:08:52.506Z,99840.56
2023-03-27T07:09:55.004Z,99848.53
2023-03-27T07:11:11.248Z,99841.16
2023-03-27T07:12:19.861Z,99845.97
2023-03-27T07:13:23.468Z,99844.91
2023-03-27T07:14:27.191Z,99853.69
2023-03-27T07:15:32.253Z,99849.91
2023-03-27T07:16:34.805Z,99855.75
2023-03-27T07:17:48.088Z,99855.13
2023-03-27T07:18:53.474Z,99858.47
2023-03-27T07:19:55.934Z,99858.47
2023-03-27T07:21:04.652Z,99865.63
2023-03-27T07:22:07.175Z,99865.81
2023-03-27T07:23:12.060Z,99865.81
2023-03-27T07:24:29.045Z,99875.47
2023-03-27T07:25:37.946Z,99876.09
2023-03-27T07:26:44.141Z,99875.22
2023-03-27T07:28:00.116Z,99874.19
2023-03-27T07:29:03.293Z,99878.59
2023-03-27T07:30:08.277Z,99887.41
2023-03-27T07:31:32.612Z,99885.25
2023-03-27T07:32:37.933Z,99883.16
2023-03-27T07:33:41.858Z,99887.91
2023-03-27T07:34:44.576Z,99886.63
2023-03-27T07:35:48.825Z,99893.34
2023-03-27T07:37:27.550Z,99892.25
2023-03-27T07:38:48.483Z,99896.19
2023-03-27T07:40:00.212Z,99900.38
2023-03-27T07:41:06.943Z,99896.97
2023-03-27T07:42:29.234Z,99895.03
2023-03-27T07:43:36.040Z,99893.72
2023-03-27T07:44:38.822Z,99900.19
2023-03-27T07:45:44.002Z,99903.88
2023-03-27T07:46:47.076Z,99902.16
2023-03-27T07:47:51.645Z,99898.72
2023-03-27T07:48:55.383Z,99901.84
2023-03-27T07:49:59.990Z,99900.94
2023-03-27T07:51:13.427Z,99903.81
2023-03-27T07:52:17.404Z,99902.88
2023-03-27T07:53:40.704Z,99900.91
2023-03-27T07:54:57.169Z,99907.72
2023-03-27T07:56:05.723Z,99902.16
2023-03-27T07:57:08.254Z,99895.75
2023-03-27T07:58:30.779Z,99903.63
2023-03-27T07:59:33.608Z,99906.63
2023-03-27T08:00:44.423Z,99908.81
2023-03-27T08:01:50.979Z,99907.41
2023-03-27T08:03:06.259Z,99909.56
2023-03-27T08:04:08.949Z,99911.13
2023-03-27T08:05:14.506Z,99916.28
2023-03-27T08:06:20.546Z,99915.09
2023-03-27T08:07:23.038Z,99909.53
2023-03-27T08:08:26.871Z,99911.09
2023-03-27T08:09:33.265Z,99918.94
2023-03-27T08:10:36.588Z,99911.44
2023-03-27T08:11:39.810Z,99922.88
2023-03-27T08:12:42.436Z,99914.78
2023-03-27T08:13:45.147Z,99921.78
2023-03-27T08:14:48.629Z,99918.94
2023-03-27T08:16:18.661Z,99922.72
2023-03-27T08:17:22.266Z,99917.69
2023-03-27T08:18:24.860Z,99923.06
2023-03-27T08:19:27.701Z,99923.16
2023-03-27T08:20:34.955Z,99916.47
2023-03-27T08:21:37.659Z,99920.16
2023-03-27T08:22:39.987Z,99923.84
2023-03-27T08:24:04.916Z,99931.09
2023-03-27T08:25:11.011Z,99930.00
2023-03-27T08:26:14.784Z,99931.66
2023-03-27T08:27:23.949Z,99934.16
2023-03-27T08:28:38.656Z,99927.34
2023-03-27T08:29:43.021Z,99934.16
2023-03-27T08:30:46.529Z,99936.91
2023-03-27T08:31:49.604Z,99942.91
2023-03-27T08:32:52.116Z,99949.13
2023-03-27T08:33:55.857Z,99948.53
2023-03-27T08:35:01.288Z,99950.34
2023-03-27T08:36:05.720Z,99949.38
2023-03-27T08:37:09.216Z,99947.13
2023-03-27T08:38:26.742Z,99950.59
2023-03-27T08:39:41.438Z,99950.84
2023-03-27T08:41:04.003Z,99956.56
2023-03-27T08:42:22.553Z,99960.38
2023-03-27T08:43:39.558Z,99951.78
2023-03-27T08:44:42.655Z,99952.03
2023-03-27T08:45:57.021Z,99953.09
2023-03-27T08:47:38.005Z,99958.00
2023-03-27T08:48:58.806Z,99954.41
2023-03-27T08:50:06.531Z,99951.56
2023-03-27T08:51:33.549Z,99951.22
2023-03-27T08:52:42.616Z,99957.19
2023-03-27T08:54:21.816Z,99951.69
2023-03-27T08:55:34.660Z,99955.53
2023-03-27T08:56:49.347Z,99950.88
2023-03-27T08:57:53.199Z,99954.22
2023-03-27T08:58:59.176Z,99954.78
2023-03-27T09:00:09.816Z,99949.31
2023-03-27T09:01:29.627Z,99961.72
2023-03-27T09:02:34.773Z,99950.75
2023-03-27T09:04:00.081Z,99955.16
2023-03-27T09:05:35.545Z,99956.59
2023-03-27T09:06:48.436Z,99953.00
2023-03-27T09:08:10.668Z,99961.22
2023-03-27T09:09:31.438Z,99949.44
2023-03-27T09:10:44.711Z,99963.97
2023-03-27T09:12:26.124Z,99965.88
2023-03-27T09:13:42.877Z,99963.63
2023-03-27T09:14:54.813Z,99965.06
2023-03-27T09:16:11.303Z,99966.38
2023-03-27T09:17:23.757Z,99960.41
2023-03-27T09:18:51.671Z,99979.09
2023-03-27T09:20:07.648Z,99968.75
2023-03-27T09:21:42.412Z,99967.66
2023-03-27T09:22:54.113Z,99972.66
2023-03-27T09:24:36.862Z,99961.81
2023-03-27T09:26:13.859Z,99980.50
2023-03-27T09:27:38.950Z,99972.41
2023-03-27T09:29:14.705Z,99980.53
2023-03-27T09:30:29.612Z,99964.50
2023-03-27T09:31:44.270Z,99975.56
2023-03-27T09:32:50.104Z,99970.19
2023-03-27T09:33:53.106Z,99968.63
2023-03-27T09:34:55.705Z,99973.41
2023-03-27T09:35:59.583Z,99973.50
2023-03-27T09:37:02.896Z,99982.66
2023-03-27T09:38:36.605Z,99979.56
2023-03-27T09:39:54.895Z,99990.38
2023-03-27T09:41:10.879Z,99984.47
2023-03-27T09:42:44.324Z,99987.06
2023-03-27T09:44:03.853Z,99991.34
2023-03-27T09:45:12.908Z,99982.72
2023-03-27T09:46:39.332Z,99992.72
2023-03-27T09:48:00.606Z,99996.66
2023-03-27T09:49:19.666Z,99983.00
2023-03-27T09:50:35.191Z,99996.72
2023-03-27T09:51:47.807Z,99997.69
2023-03-27T09:53:16.384Z,100001.94
2023-03-27T09:54:52.183Z,99994.09
2023-03-27T09:56:05.671Z,99999.66
2023-03-27T09:57:12.815Z,99995.41
2023-03-27T09:58:28.000Z,99991.41
2023-03-27T09:59:31.132Z,99997.59
2023-03-27T10:00:41.741Z,99999.66
2023-03-27T10:01:48.409Z,99998.31
2023-03-27T10:03:00.644Z,100002.75
2023-03-27T10:04:13.543Z,100002.75
2023-03-27T10:05:24.234Z,100003.59
2023-03-27T10:06:38.010Z,99999.66
2023-03-27T10:07:51.630Z,100003.50
2023-03-27T10:09:23.082Z,99998.00
2023-03-27T10:10:32.630Z,99997.16
2023-03-27T10:12:04.783Z,99991.66
2023-03-27T10:13:14.332Z,99992.50
2023-03-27T10:14:26.454Z,99987.84
2023-03-27T10:15:38.876Z,99983.66
2023-03-27T10:16:43.472Z,99992.75
2023-03-27T10:17:48.782Z,99995.25
2023-03-27T10:18:55.390Z,99990.91
2023-03-27T10:20:09.287Z,100000.25
2023-03-27T10:21:33.477Z,100011.25
2023-03-27T10:22:54.581Z,100015.16
2023-03-27T10:24:28.074Z,100009.41
2023-03-27T10:26:04.666Z,100022.06
2023-03-27T10:27:22.291Z,100019.06
2023-03-27T10:28:49.255Z,100014.41
2023-03-27T10:29:59.639Z,100015.25
2023-03-27T10:31:25.645Z,100021.00
2023-03-27T10:32:46.882Z,100011.88
2023-03-27T10:34:33.589Z,100022.34
2023-03-27T10:36:14.593Z,100017.34
2023-03-27T10:37:28.215Z,100015.66
2023-03-27T10:39:07.464Z,100017.50
2023-03-27T10:40:31.050Z,100029.81
2023-03-27T10:41:39.703Z,100029.25
2023-03-27T10:42:44.211Z,100022.59
2023-03-27T10:43:49.474Z,100032.75
2023-03-27T10:44:58.074Z,100040.75
2023-03-27T10:46:10.007Z,100039.59
2023-03-27T10:47:23.024Z,100039.28
2023-03-27T10:48:32.916Z,100042.50
2023-03-27T10:49:49.824Z,100049.34
2023-03-27T10:51:06.621Z,100040.25
2023-03-27T10:52:57.402Z,100044.34
2023-03-27T10:54:27.053Z,100043.50
2023-03-27T10:55:57.819Z,100043.50
2023-03-27T10:57:28.835Z,100049.84
2023-03-27T10:58:37.728Z,100053.16
2023-03-27T10:59:51.333Z,100052.34
2023-03-27T11:01:12.029Z,100049.06
2023-03-27T11:02:37.156Z,100048.84
2023-03-27T11:03:51.854Z,100045.00
2023-03-27T11:05:10.177Z,100050.84
2023-03-27T11:06:16.753Z,100055.25
2023-03-27T11:07:38.005Z,100045.69
2023-03-27T11:08:49.757Z,100055.34
2023-03-27T11:09:59.560Z,100040.53
2023-03-27T11:11:22.644Z,100052.94
2023-03-27T11:12:33.020Z,100051.25
2023-03-27T11:13:48.098Z,100048.00
2023-03-27T11:15:10.770Z,100049.69
2023-03-27T11:16:37.518Z,100058.28
2023-03-27T11:17:54.848Z,100061.34
2023-03-27T11:19:33.354Z,100066.84
2023-03-27T11:21:16.321Z,100063.00
2023-03-27T11:22:35.410Z,100068.50
2023-03-27T11:23:56.658Z,100058.28
2023-03-27T11:25:27.350Z,100052.16
2023-03-27T11:26:47.900Z,100067.50
2023-03-27T11:28:39.866Z,100060.25
2023-03-27T11:29:57.453Z,100062.09
2023-03-27T11:31:12.797Z,100065.91
2023-03-27T11:32:27.460Z,100068.25
2023-03-27T11:33:52.604Z,100074.00
2023-03-27T11:35:04.300Z,100067.31
2023-03-27T11:36:31.848Z,100065.34
2023-03-27T11:37:48.254Z,100077.66
2023-03-27T11:39:07.408Z,100078.38
2023-03-27T11:40:17.499Z,100068.13
2023-03-27T11:41:21.091Z,100074.94
2023-03-27T11:42:37.051Z,100085.63
2023-03-27T11:43:43.600Z,100085.00
2023-03-27T11:45:10.039Z,100086.59
2023-03-27T11:46:22.238Z,100102.47
2023-03-27T11:47:49.574Z,100099.63
2023-03-27T11:49:15.308Z,100096.78
2023-03-27T11:50:24.543Z,100102.78
2023-03-27T11:51:57.964Z,100100.97
2023-03-27T11:53:45.144Z,100094.28
2023-03-27T11:55:06.723Z,100100.53
2023-03-27T11:56:44.661Z,100091.94
2023-03-27T11:58:07.698Z,100093.00
2023-03-27T12:00:01.406Z,100091.84
2023-03-27T12:01:10.146Z,100091.59
2023-03-27T12:02:37.092Z,100091.47
2023-03-27T12:04:01.338Z,100091.13
2023-03-27T12:05:53.055Z,100096.50
2023-03-27T12:07:21.059Z,100088.28
2023-03-27T12:08:51.778Z,100094.50
2023-03-27T12:10:18.548Z,100094.41
2023-03-27T12:11:42.692Z,100094.63
2023-03-27T12:13:06.923Z,100091.28
2023-03-27T12:14:28.123Z,100099.53
2023-03-27T12:16:13.111Z,100107.41
2023-03-27T12:17:32.939Z,100097.97
2023-03-27T12:19:28.550Z,100099.06
2023-03-27T12:21:17.876Z,100094.41
2023-03-27T12:22:37.114Z,100105.84
2023-03-27T12:24:11.243Z,100097.97
2023-03-27T12:26:01.355Z,100100.97
2023-03-27T12:27:45.124Z,100097.41
2023-03-27T12:29:24.436Z,100100.16
2023-03-27T12:30:55.765Z,100097.72
2023-03-27T12:32:22.603Z,100096.66
2023-03-27T12:33:53.357Z,100104.66
2023-03-27T12:35:04.416Z,100102.75
2023-03-27T12:36:22.469Z,100112.44
2023-03-27T12:37:42.350Z,100108.38
2023-03-27T12:38:45.659Z,100106.44
2023-03-27T12:39:55.082Z,100103.44
2023-03-27T12:41:07.023Z,100103.00
2023-03-27T12:42:54.645Z,100104.41
2023-03-27T12:44:00.931Z,100106.91
2023-03-27T12:45:27.121Z,100107.03
2023-03-27T12:46:36.661Z,100111.44
2023-03-27T12:47:39.188Z,100101.03
2023-03-27T12:48:54.760Z,100103.28
2023-03-27T12:50:00.028Z,100098.66
2023-03-27T12:51:14.362Z,100107.25
2023-03-27T12:52:19.513Z,100096.84
2023-03-27T12:53:46.808Z,100102.69
2023-03-27T12:55:18.678Z,100097.53
2023-03-27T12:56:36.303Z,100096.78
2023-03-27T12:57:44.324Z,100096.31
2023-03-27T12:58:54.898Z,100095.84
2023-03-27T13:00:10.617Z,100093.47
2023-03-27T13:01:25.218Z,100097.88
2023-03-27T13:02:53.812Z,100100.13
2023-03-27T13:04:17.143Z,100113.63
2023-03-27T13:05:41.049Z,100118.41
2023-03-27T13:07:20.751Z,100105.72
2023-03-27T13:09:10.671Z,100121.28
2023-03-27T13:10:40.836Z,100131.69
2023-03-27T13:11:58.732Z,100140.16
2023-03-27T13:13:26.345Z,100126.69
2023-03-27T13:14:56.777Z,100119.50
2023-03-27T13:16:17.730Z,100133.81
2023-03-27T13:17:42.791Z,100133.81
2023-03-27T13:19:23.195Z,100133.81
2023-03-27T13:21:16.697Z,100134.66
2023-03-27T13:22:47.613Z,100135.50
2023-03-27T13:24:14.108Z,100136.56
2023-03-27T13:25:40.896Z,100142.31
2023-03-27T13:27:06.941Z,100139.81
2023-03-27T13:28:31.530Z,100136.00
2023-03-27T13:29:41.781Z,100137.88
2023-03-27T13:30:56.133Z,100136.25
2023-03-27T13:32:39.249Z,100146.97
2023-03-27T13:34:14.063Z,100138.75
2023-03-27T13:35:23.259Z,100127.75
2023-03-27T13:36:26.733Z,100136.00
2023-03-27T13:37:36.627Z,100138.50
2023-03-27T13:39:07.422Z,100147.34
2023-03-27T13:40:20.756Z,100138.00
2023-03-27T13:41:47.446Z,100145.16
2023-03-27T13:43:22.935Z,100146.00
2023-03-27T13:44:48.088Z,100164.66
2023-03-27T13:45:55.078Z,100182.44
2023-03-27T13:47:35.119Z,100190.09
2023-03-27T13:48:50.477Z,100180.06
2023-03-27T13:50:28.292Z,100174.44
2023-03-27T13:51:53.539Z,100166.56
2023-03-27T13:53:23.908Z,100161.69
2023-03-27T13:55:21.559Z,100171.00
2023-03-27T13:56:55.901Z,100171.84
2023-03-27T13:58:26.016Z,100181.06
2023-03-27T13:59:41.019Z,100189.63
2023-03-27T14:01:07.950Z,100200.72
2023-03-27T14:02:19.158Z,100205.84
2023-03-27T14:03:45.430Z,100209.16
2023-03-27T14:04:58.065Z,100196.50
2023-03-27T14:06:08.914Z,100191.38
2023-03-27T14:07:39.724Z,100189.31
2023-03-27T14:09:08.302Z,100178.69
2023-03-27T14:10:40.688Z,100167.22
2023-03-27T14:12:21.095Z,100172.19
2023-03-27T14:14:04.213Z,100176.09
2023-03-27T14:15:15.628Z,100175.94
2023-03-27T14:17:00.481Z,100181.28
2023-03-27T14:18:23.528Z,100200.31
2023-03-27T14:20:16.484Z,100193.63
2023-03-27T14:21:35.550Z,100205.31
2023-03-27T14:22:53.783Z,100218.00